Ryoho Maru No.2 — JD2964 — position and weather

sailwx.info

Track history (hours):
 
Tides and Currents Weather Stations Pressure Air Temp Water Temp Dewpoint Dewpoint Depression Visibility Wind Speed Wind Dir Waves Ship Positions

Ryoho Maru No.2

Last reported at 2017-Jul-25 07:26 UTC. Time now 2017-Jul-28 16:50 UTC.
Position N 34°53' E 139°48'.

Length 57 m; draft 4 m.

Type: Tanker. MMSI: 431001062.

Date/timePositionNaut miles runAvg speedWind from/ knotsBaromVisibWave heightAir tempDewpointWater temp
2017-Jul-25 07:26N 34°53' E 139°48'510.2
2017-Jul-25 06:59N 34°57' E 139°45'4 8.9
2017-Jul-25 06:30N 35°01' E 139°44'5 9.2
2017-Jul-25 06:00N 35°06' E 139°45'5 9.2
2017-Jul-25 05:30N 35°10' E 139°46'4 8.4
2017-Jul-25 05:01N 35°15' E 139°46'4 8.7
2017-Jul-25 04:30N 35°18' E 139°44'5 9.1
2017-Jul-25 04:01N 35°23' E 139°42'5 9.3
2017-Jul-25 03:31N 35°27' E 139°45'4 7.9
2017-Jul-25 03:00N 35°31' E 139°46'1 2.3
2017-Jul-25 02:30N 35°32' E 139°45'0 0.0
2017-Jul-25 02:00N 35°32' E 139°45'0 0.0
2017-Jul-25 01:30N 35°32' E 139°45'0 0.0
2017-Jul-25 01:00N 35°32' E 139°45'0 0.0
2017-Jul-25 00:30N 35°32' E 139°45'0 0.0
2017-Jul-25 00:00N 35°32' E 139°45'0 0.8
2017-Jul-24 23:30N 35°31' E 139°46'4 7.1
2017-Jul-24 23:00N 35°30' E 139°49'0 0.0
2017-Jul-24 22:30N 35°30' E 139°49'0 0.1
2017-Jul-24 22:01N 35°30' E 139°49'0 0.1
2017-Jul-24 21:30N 35°30' E 139°49'0 0.0
2017-Jul-24 20:59N 35°30' E 139°49'0 0.1
2017-Jul-24 20:30N 35°30' E 139°49'0 0.1
2017-Jul-24 20:00N 35°30' E 139°49'0 0.0
2017-Jul-24 19:28N 35°30' E 139°49'0 0.0
2017-Jul-24 19:00N 35°30' E 139°49'0 0.0
2017-Jul-24 18:30N 35°30' E 139°49'0 0.0
2017-Jul-24 18:00N 35°30' E 139°49'0 0.0
2017-Jul-24 17:29N 35°30' E 139°49'0 0.0
2017-Jul-24 17:00N 35°30' E 139°49'0 0.0
2017-Jul-24 16:30N 35°30' E 139°49'0 0.0
2017-Jul-24 15:58N 35°30' E 139°49'0 0.0
2017-Jul-24 13:00N 35°30' E 139°49'0 0.0
2017-Jul-24 12:29N 35°30' E 139°49'0 0.1
2017-Jul-24 12:00N 35°30' E 139°49'0 0.1
2017-Jul-24 11:30N 35°30' E 139°49'0 0.1
2017-Jul-24 11:00N 35°30' E 139°49'0 0.0
2017-Jul-24 10:30N 35°30' E 139°49'0 0.0
2017-Jul-24 10:01N 35°30' E 139°49'0 0.0
2017-Jul-24 09:30N 35°30' E 139°49'0 0.0
2017-Jul-24 09:00N 35°30' E 139°49'0 0.0
2017-Jul-24 08:30N 35°30' E 139°49'0 0.0
2017-Jul-24 08:00N 35°30' E 139°49'0 0.0
2017-Jul-24 07:28N 35°30' E 139°49'0 0.0
2017-Jul-24 07:00N 35°30' E 139°49'0 0.1
2017-Jul-24 06:30N 35°30' E 139°49'0 0.0
2017-Jul-24 06:00N 35°30' E 139°49'0 0.7
2017-Jul-24 05:30N 35°30' E 139°50'5 9.7
2017-Jul-24 05:00N 35°30' E 139°56'4 0.7
2017-Jul-23 22:48N 35°29' E 140°01'1 1.2
2017-Jul-23 22:05N 35°29' E 139°60'0 0.0
2017-Jul-23 18:48N 35°29' E 139°60'0 0.0
2017-Jul-23 18:26N 35°29' E 139°60'0 0.0
2017-Jul-23 17:48N 35°29' E 139°60'0 0.0
2017-Jul-23 17:30N 35°29' E 139°60'0 0.0
2017-Jul-23 16:51N 35°29' E 139°60'0 0.0
2017-Jul-23 16:30N 35°29' E 139°60'0 0.0
2017-Jul-23 15:53N 35°29' E 139°60'0 0.0
2017-Jul-23 15:27N 35°29' E 139°60'0 0.0
2017-Jul-23 14:54N 35°29' E 139°60'0 0.0
2017-Jul-23 14:27N 35°29' E 139°60'0 0.0
2017-Jul-23 14:00N 35°29' E 139°60'0 0.0
2017-Jul-23 13:28N 35°29' E 139°60'0 0.0
2017-Jul-23 12:53N 35°29' E 139°60'0 0.0
2017-Jul-23 12:13N 35°29' E 139°60'0 0.0
2017-Jul-23 11:55N 35°29' E 139°60'0 0.0
2017-Jul-23 11:23N 35°29' E 139°60'0 0.0
2017-Jul-23 10:59N 35°29' E 139°60'0 0.0
2017-Jul-23 10:09N 35°29' E 139°60'0 0.0
2017-Jul-23 09:58N 35°29' E 139°60'0 0.0
2017-Jul-23 09:09N 35°29' E 139°60'0 0.0
2017-Jul-23 08:52N 35°29' E 139°60'0 0.0
2017-Jul-23 08:29N 35°29' E 139°60'0 0.0
2017-Jul-23 07:18N 35°29' E 139°60'0 0.0
2017-Jul-23 06:59N 35°29' E 139°60'0 0.0
2017-Jul-23 06:17N 35°29' E 139°60'0 0.0
2017-Jul-23 05:58N 35°29' E 139°60'0 0.0
2017-Jul-23 05:12N 35°29' E 139°60'0 0.0
2017-Jul-23 04:43N 35°29' E 139°60'0 0.0
2017-Jul-23 04:26N 35°29' E 139°60'0 0.0
2017-Jul-23 03:46N 35°29' E 139°60'0 0.0
2017-Jul-23 03:24N 35°29' E 139°60'0 0.0
2017-Jul-23 02:59N 35°29' E 139°60'0 0.0
2017-Jul-23 02:30N 35°29' E 139°60'0 0.0
2017-Jul-23 01:43N 35°29' E 139°60'0 0.0
2017-Jul-23 00:40N 35°29' E 139°60'0 0.0
2017-Jul-23 00:25N 35°29' E 139°60'0 0.0
2017-Jul-22 23:52N 35°29' E 139°60'0 0.0
2017-Jul-22 23:22N 35°29' E 139°60'0 0.0
2017-Jul-22 20:52N 35°29' E 139°60'0 0.0
2017-Jul-22 15:10N 35°29' E 139°60'0 0.0
2017-Jul-22 14:52N 35°29' E 139°60'0 0.0
2017-Jul-22 13:58N 35°29' E 139°60'0 0.0
2017-Jul-22 13:28N 35°29' E 139°60'0 0.0
2017-Jul-22 12:16N 35°29' E 139°60'0 0.0
2017-Jul-22 11:58N 35°29' E 139°60'0 0.0
2017-Jul-22 10:19N 35°29' E 139°60'0 0.0
2017-Jul-22 09:58N 35°29' E 139°60'0 0.0
2017-Jul-22 07:40N 35°29' E 139°60'0 0.0
2017-Jul-22 07:28N 35°29' E 139°60'0 0.0
2017-Jul-22 06:58N 35°29' E 139°60'0 0.0
2017-Jul-22 06:25N 35°29' E 139°60'0 0.0
2017-Jul-22 04:01N 35°29' E 139°60'0 0.0
2017-Jul-22 03:43N 35°29' E 139°60'0 0.0
2017-Jul-22 03:16N 35°29' E 139°60'0 0.0
2017-Jul-22 02:58N 35°29' E 139°60'0 0.0
2017-Jul-22 02:28N 35°29' E 139°60'0 0.0
2017-Jul-22 01:58N 35°29' E 139°60'0 0.0
2017-Jul-22 01:28N 35°29' E 139°60'0 0.0
2017-Jul-22 00:58N 35°29' E 139°60'0 0.1
2017-Jul-22 00:22N 35°29' E 139°60'0 0.0
2017-Jul-21 23:40N 35°29' E 139°60'0 0.1
2017-Jul-21 23:28N 35°29' E 139°60'0 0.0
2017-Jul-21 22:34N 35°29' E 139°60'0 0.0
2017-Jul-21 22:25N 35°29' E 139°60'0 0.0
2017-Jul-21 21:28N 35°29' E 139°60'0 0.0
2017-Jul-21 20:58N 35°29' E 139°60'0 0.0
2017-Jul-21 18:37N 35°29' E 139°60'0 0.1
2017-Jul-21 17:46N 35°29' E 139°60'0 0.0
2017-Jul-21 17:25N 35°29' E 139°60'0 0.0
2017-Jul-21 16:46N 35°29' E 139°60'0 0.1
2017-Jul-21 16:05N 35°29' E 139°60'0 0.6
2017-Jul-21 16:01N 35°29' E 139°60'510.2
2017-Jul-21 15:31N 35°29' E 139°54'611.7
2017-Jul-21 15:00N 35°25' E 139°48'611.7
2017-Jul-21 14:30N 35°20' E 139°45'510.7
2017-Jul-21 14:01N 35°15' E 139°47'611.3
2017-Jul-21 13:30N 35°10' E 139°47'510.7
2017-Jul-21 13:00N 35°04' E 139°45'510.3
2017-Jul-21 12:30N 34°59' E 139°44'  
Track history (hours):
 
Tides and Currents Weather Stations Pressure Air Temp Water Temp Dewpoint Dewpoint Depression Visibility Wind Speed Wind Dir Waves Ship Positions

Ryoho Maru No.2

Last reported at 2017-Jul-25 07:26 UTC. Time now 2017-Jul-28 16:50 UTC.
Position N 34°53' E 139°48'.

Length 57 m; draft 4 m.

Type: Tanker. MMSI: 431001062.

Date/timePositionNaut miles runAvg speedWind from/ knotsBaromVisibWave heightAir tempDewpointWater temp
2017-Jul-25 07:26N 34°53' E 139°48'510.2
2017-Jul-25 06:59N 34°57' E 139°45'4 8.9
2017-Jul-25 06:30N 35°01' E 139°44'5 9.2
2017-Jul-25 06:00N 35°06' E 139°45'5 9.2
2017-Jul-25 05:30N 35°10' E 139°46'4 8.4
2017-Jul-25 05:01N 35°15' E 139°46'4 8.7
2017-Jul-25 04:30N 35°18' E 139°44'5 9.1
2017-Jul-25 04:01N 35°23' E 139°42'5 9.3
2017-Jul-25 03:31N 35°27' E 139°45'4 7.9
2017-Jul-25 03:00N 35°31' E 139°46'1 2.3
2017-Jul-25 02:30N 35°32' E 139°45'0 0.0
2017-Jul-25 02:00N 35°32' E 139°45'0 0.0
2017-Jul-25 01:30N 35°32' E 139°45'0 0.0
2017-Jul-25 01:00N 35°32' E 139°45'0 0.0
2017-Jul-25 00:30N 35°32' E 139°45'0 0.0
2017-Jul-25 00:00N 35°32' E 139°45'0 0.8
2017-Jul-24 23:30N 35°31' E 139°46'4 7.1
2017-Jul-24 23:00N 35°30' E 139°49'0 0.0
2017-Jul-24 22:30N 35°30' E 139°49'0 0.1
2017-Jul-24 22:01N 35°30' E 139°49'0 0.1
2017-Jul-24 21:30N 35°30' E 139°49'0 0.0
2017-Jul-24 20:59N 35°30' E 139°49'0 0.1
2017-Jul-24 20:30N 35°30' E 139°49'0 0.1
2017-Jul-24 20:00N 35°30' E 139°49'0 0.0
2017-Jul-24 19:28N 35°30' E 139°49'0 0.0
2017-Jul-24 19:00N 35°30' E 139°49'0 0.0
2017-Jul-24 18:30N 35°30' E 139°49'0 0.0
2017-Jul-24 18:00N 35°30' E 139°49'0 0.0
2017-Jul-24 17:29N 35°30' E 139°49'0 0.0
2017-Jul-24 17:00N 35°30' E 139°49'0 0.0
2017-Jul-24 16:30N 35°30' E 139°49'0 0.0
2017-Jul-24 15:58N 35°30' E 139°49'0 0.0
2017-Jul-24 13:00N 35°30' E 139°49'0 0.0
2017-Jul-24 12:29N 35°30' E 139°49'0 0.1
2017-Jul-24 12:00N 35°30' E 139°49'0 0.1
2017-Jul-24 11:30N 35°30' E 139°49'0 0.1
2017-Jul-24 11:00N 35°30' E 139°49'0 0.0
2017-Jul-24 10:30N 35°30' E 139°49'0 0.0
2017-Jul-24 10:01N 35°30' E 139°49'0 0.0
2017-Jul-24 09:30N 35°30' E 139°49'0 0.0
2017-Jul-24 09:00N 35°30' E 139°49'0 0.0
2017-Jul-24 08:30N 35°30' E 139°49'0 0.0
2017-Jul-24 08:00N 35°30' E 139°49'0 0.0
2017-Jul-24 07:28N 35°30' E 139°49'0 0.0
2017-Jul-24 07:00N 35°30' E 139°49'0 0.1
2017-Jul-24 06:30N 35°30' E 139°49'0 0.0
2017-Jul-24 06:00N 35°30' E 139°49'0 0.7
2017-Jul-24 05:30N 35°30' E 139°50'5 9.7
2017-Jul-24 05:00N 35°30' E 139°56'4 0.7
2017-Jul-23 22:48N 35°29' E 140°01'1 1.2
2017-Jul-23 22:05N 35°29' E 139°60'0 0.0
2017-Jul-23 18:48N 35°29' E 139°60'0 0.0
2017-Jul-23 18:26N 35°29' E 139°60'0 0.0
2017-Jul-23 17:48N 35°29' E 139°60'0 0.0
2017-Jul-23 17:30N 35°29' E 139°60'0 0.0
2017-Jul-23 16:51N 35°29' E 139°60'0 0.0
2017-Jul-23 16:30N 35°29' E 139°60'0 0.0
2017-Jul-23 15:53N 35°29' E 139°60'0 0.0
2017-Jul-23 15:27N 35°29' E 139°60'0 0.0
2017-Jul-23 14:54N 35°29' E 139°60'0 0.0
2017-Jul-23 14:27N 35°29' E 139°60'0 0.0
2017-Jul-23 14:00N 35°29' E 139°60'0 0.0
2017-Jul-23 13:28N 35°29' E 139°60'0 0.0
2017-Jul-23 12:53N 35°29' E 139°60'0 0.0
2017-Jul-23 12:13N 35°29' E 139°60'0 0.0
2017-Jul-23 11:55N 35°29' E 139°60'0 0.0
2017-Jul-23 11:23N 35°29' E 139°60'0 0.0
2017-Jul-23 10:59N 35°29' E 139°60'0 0.0
2017-Jul-23 10:09N 35°29' E 139°60'0 0.0
2017-Jul-23 09:58N 35°29' E 139°60'0 0.0
2017-Jul-23 09:09N 35°29' E 139°60'0 0.0
2017-Jul-23 08:52N 35°29' E 139°60'0 0.0
2017-Jul-23 08:29N 35°29' E 139°60'0 0.0
2017-Jul-23 07:18N 35°29' E 139°60'0 0.0
2017-Jul-23 06:59N 35°29' E 139°60'0 0.0
2017-Jul-23 06:17N 35°29' E 139°60'0 0.0
2017-Jul-23 05:58N 35°29' E 139°60'0 0.0
2017-Jul-23 05:12N 35°29' E 139°60'0 0.0
2017-Jul-23 04:43N 35°29' E 139°60'0 0.0
2017-Jul-23 04:26N 35°29' E 139°60'0 0.0
2017-Jul-23 03:46N 35°29' E 139°60'0 0.0
2017-Jul-23 03:24N 35°29' E 139°60'0 0.0
2017-Jul-23 02:59N 35°29' E 139°60'0 0.0
2017-Jul-23 02:30N 35°29' E 139°60'0 0.0
2017-Jul-23 01:43N 35°29' E 139°60'0 0.0
2017-Jul-23 00:40N 35°29' E 139°60'0 0.0
2017-Jul-23 00:25N 35°29' E 139°60'0 0.0
2017-Jul-22 23:52N 35°29' E 139°60'0 0.0
2017-Jul-22 23:22N 35°29' E 139°60'0 0.0
2017-Jul-22 20:52N 35°29' E 139°60'0 0.0
2017-Jul-22 15:10N 35°29' E 139°60'0 0.0
2017-Jul-22 14:52N 35°29' E 139°60'0 0.0
2017-Jul-22 13:58N 35°29' E 139°60'0 0.0
2017-Jul-22 13:28N 35°29' E 139°60'0 0.0
2017-Jul-22 12:16N 35°29' E 139°60'0 0.0
2017-Jul-22 11:58N 35°29' E 139°60'0 0.0
2017-Jul-22 10:19N 35°29' E 139°60'0 0.0
2017-Jul-22 09:58N 35°29' E 139°60'0 0.0
2017-Jul-22 07:40N 35°29' E 139°60'0 0.0
2017-Jul-22 07:28N 35°29' E 139°60'0 0.0
2017-Jul-22 06:58N 35°29' E 139°60'0 0.0
2017-Jul-22 06:25N 35°29' E 139°60'0 0.0
2017-Jul-22 04:01N 35°29' E 139°60'0 0.0
2017-Jul-22 03:43N 35°29' E 139°60'0 0.0
2017-Jul-22 03:16N 35°29' E 139°60'0 0.0
2017-Jul-22 02:58N 35°29' E 139°60'0 0.0
2017-Jul-22 02:28N 35°29' E 139°60'0 0.0
2017-Jul-22 01:58N 35°29' E 139°60'0 0.0
2017-Jul-22 01:28N 35°29' E 139°60'0 0.0
2017-Jul-22 00:58N 35°29' E 139°60'0 0.1
2017-Jul-22 00:22N 35°29' E 139°60'0 0.0
2017-Jul-21 23:40N 35°29' E 139°60'0 0.1
2017-Jul-21 23:28N 35°29' E 139°60'0 0.0
2017-Jul-21 22:34N 35°29' E 139°60'0 0.0
2017-Jul-21 22:25N 35°29' E 139°60'0 0.0
2017-Jul-21 21:28N 35°29' E 139°60'0 0.0
2017-Jul-21 20:58N 35°29' E 139°60'0 0.0
2017-Jul-21 18:37N 35°29' E 139°60'0 0.1
2017-Jul-21 17:46N 35°29' E 139°60'0 0.0
2017-Jul-21 17:25N 35°29' E 139°60'0 0.0
2017-Jul-21 16:46N 35°29' E 139°60'0 0.1
2017-Jul-21 16:05N 35°29' E 139°60'0 0.6
2017-Jul-21 16:01N 35°29' E 139°60'510.2
2017-Jul-21 15:31N 35°29' E 139°54'611.7
2017-Jul-21 15:00N 35°25' E 139°48'611.7
2017-Jul-21 14:30N 35°20' E 139°45'510.7
2017-Jul-21 14:01N 35°15' E 139°47'611.3
2017-Jul-21 13:30N 35°10' E 139°47'510.7
2017-Jul-21 13:00N 35°04' E 139°45'510.3
2017-Jul-21 12:30N 34°59' E 139°44'  

Dump ship's entire track history